METAR Data
IDs: Format: Raw Decoded Include TAF

Data at: 1957 UTC 26 Sep 2021

METAR for:KBNL (Barnwell Cnty, SC, US)
Text:KBNL 261955Z AUTO VRB05KT 10SM SCT060 29/12 A3006 RMK AO2
Temperature: 29.0°C ( 84°F)
Dewpoint: 12.0°C ( 54°F) [RH = 35%]
Pressure (altimeter):30.06 inches Hg (1018.0 mb)
Winds:variable direction winds at 6 MPH (5 knots; 2.6 m/s)
Visibility:10 or more sm (16+ km)
Ceiling:at least 12,000 feet AGL
Clouds: scattered clouds at 6000 feet AGL
QC Flag:automated observation with no human augmentation

TAF for:KBNL (Barnwell Cnty, SC, US)
Text:No data found